createdAt,value
2022-11-03T00:00:50.295Z,12.50
2022-11-03T00:01:52.143Z,12.20
2022-11-03T00:02:54.159Z,11.95
2022-11-03T00:03:55.912Z,12.07
2022-11-03T00:04:57.587Z,12.48
2022-11-03T00:06:04.969Z,12.98
2022-11-03T00:07:06.774Z,13.48
2022-11-03T00:08:08.527Z,13.87
2022-11-03T00:09:13.015Z,14.19
2022-11-03T00:10:14.798Z,14.46
2022-11-03T00:11:16.763Z,14.66
2022-11-03T00:12:18.450Z,14.68
2022-11-03T00:13:20.162Z,14.36
2022-11-03T00:14:22.126Z,13.88
2022-11-03T00:15:23.872Z,13.38
2022-11-03T00:16:25.625Z,12.93
2022-11-03T00:17:27.310Z,12.52
2022-11-03T00:18:29.290Z,12.17
2022-11-03T00:19:31.228Z,11.87
2022-11-03T00:20:32.955Z,11.80
2022-11-03T00:21:34.923Z,12.13
2022-11-03T00:22:36.670Z,12.61
2022-11-03T00:23:41.567Z,13.12
2022-11-03T00:24:43.381Z,13.56
2022-11-03T00:25:45.152Z,13.91
2022-11-03T00:26:46.919Z,14.22
2022-11-03T00:27:54.797Z,14.45
2022-11-03T00:29:03.042Z,14.55
2022-11-03T00:30:05.094Z,14.25
2022-11-03T00:31:13.157Z,13.78
2022-11-03T00:32:14.868Z,13.26
2022-11-03T00:33:16.619Z,12.82
2022-11-03T00:34:18.285Z,12.44
2022-11-03T00:35:19.981Z,12.12
2022-11-03T00:36:43.143Z,11.87
2022-11-03T00:37:44.923Z,12.04
2022-11-03T00:38:47.105Z,12.51
2022-11-03T00:39:48.818Z,13.04
2022-11-03T00:40:54.938Z,13.52
2022-11-03T00:41:56.675Z,13.94
2022-11-03T00:42:58.425Z,14.27
2022-11-03T00:44:00.611Z,14.48
2022-11-03T00:45:02.325Z,14.32
2022-11-03T00:46:06.982Z,13.91
2022-11-03T00:47:08.767Z,13.43
2022-11-03T00:48:29.164Z,12.96
2022-11-03T00:49:30.991Z,12.44
2022-11-03T00:50:34.161Z,12.09
2022-11-03T00:51:36.276Z,11.78
2022-11-03T00:52:38.051Z,11.65
2022-11-03T00:54:08.996Z,11.90
2022-11-03T00:55:10.735Z,12.62
2022-11-03T00:56:17.706Z,13.12
2022-11-03T00:57:19.445Z,13.58
2022-11-03T00:58:21.837Z,13.94
2022-11-03T00:59:23.626Z,14.25
2022-11-03T01:00:25.316Z,14.42
2022-11-03T01:01:33.001Z,14.25
2022-11-03T01:02:34.899Z,13.76
2022-11-03T01:03:39.270Z,13.29
2022-11-03T01:04:59.603Z,12.82
2022-11-03T01:06:21.046Z,12.32
2022-11-03T01:07:22.786Z,11.87
2022-11-03T01:08:27.625Z,11.62
2022-11-03T01:09:36.501Z,11.71
2022-11-03T01:10:38.425Z,12.18
2022-11-03T01:11:45.815Z,12.68
2022-11-03T01:12:47.532Z,13.21
2022-11-03T01:13:49.236Z,13.60
2022-11-03T01:14:53.337Z,13.92
2022-11-03T01:16:00.613Z,14.19
2022-11-03T01:17:05.805Z,14.28
2022-11-03T01:18:08.057Z,13.95
2022-11-03T01:19:10.279Z,13.48
2022-11-03T01:20:11.958Z,13.00
2022-11-03T01:21:13.750Z,12.56
2022-11-03T01:22:17.063Z,12.16
2022-11-03T01:23:18.908Z,11.81
2022-11-03T01:24:21.584Z,11.55
2022-11-03T01:25:24.232Z,11.62
2022-11-03T01:26:29.131Z,12.04
2022-11-03T01:27:30.876Z,12.57
2022-11-03T01:28:40.109Z,13.03
2022-11-03T01:29:42.398Z,13.49
2022-11-03T01:30:44.181Z,13.81
2022-11-03T01:31:45.958Z,14.07
2022-11-03T01:32:47.741Z,14.25
2022-11-03T01:58:00.664Z,11.42
2022-11-03T01:59:03.824Z,11.85
2022-11-03T02:00:06.768Z,12.36
2022-11-03T02:01:18.237Z,12.91
2022-11-03T02:02:20.208Z,13.32
2022-11-03T02:03:24.231Z,13.67
2022-11-03T02:04:31.910Z,13.95
2022-11-03T02:05:34.044Z,14.06
2022-11-03T02:06:36.531Z,13.78
2022-11-03T02:07:52.514Z,13.29
2022-11-03T02:09:01.400Z,12.69
2022-11-03T02:10:04.299Z,12.20
2022-11-03T02:11:26.137Z,11.79
2022-11-03T02:12:29.440Z,11.34
2022-11-03T02:13:31.163Z,11.15
2022-11-03T02:14:33.413Z,11.37
2022-11-03T02:15:37.675Z,11.83
2022-11-03T02:16:48.705Z,12.33
2022-11-03T02:17:54.367Z,12.83
2022-11-03T02:18:59.881Z,13.20
2022-11-03T02:20:13.336Z,13.52
2022-11-03T02:21:20.686Z,13.79
2022-11-03T02:22:56.009Z,13.95
2022-11-03T02:24:20.472Z,13.50
2022-11-03T02:25:40.524Z,12.82
2022-11-03T02:26:47.843Z,12.21
2022-11-03T02:27:49.710Z,11.76
2022-11-03T02:30:00.025Z,11.18
2022-11-03T02:31:34.318Z,11.39
2022-11-03T02:32:57.750Z,12.12
2022-11-03T02:34:21.845Z,12.77
2022-11-03T02:35:35.891Z,13.30
2022-11-03T02:36:51.797Z,13.66
2022-11-03T02:37:59.571Z,13.91
2022-11-03T02:39:14.873Z,13.75
2022-11-03T02:40:26.077Z,13.23
2022-11-03T02:41:33.317Z,12.69
2022-11-03T02:42:40.534Z,12.22
2022-11-03T02:43:45.959Z,11.80
2022-11-03T02:44:49.088Z,11.48
2022-11-03T02:45:53.039Z,11.21
2022-11-03T02:47:00.743Z,11.25
2022-11-03T02:48:05.649Z,11.71
2022-11-03T02:49:07.596Z,12.26
2022-11-03T02:50:10.581Z,12.75
2022-11-03T02:51:12.373Z,13.19
2022-11-03T02:52:34.510Z,13.56
2022-11-03T02:53:44.668Z,13.90
2022-11-03T02:54:46.644Z,13.75
2022-11-03T02:56:05.534Z,13.33
2022-11-03T02:57:21.891Z,12.74
2022-11-03T02:58:40.804Z,12.20
2022-11-03T03:00:03.450Z,11.73
2022-11-03T03:01:16.671Z,11.31
2022-11-03T03:02:26.418Z,11.05
2022-11-03T03:03:42.535Z,11.27
2022-11-03T03:04:53.852Z,11.88
2022-11-03T03:06:05.476Z,12.48
2022-11-03T03:07:21.851Z,13.01
2022-11-03T03:08:27.321Z,13.46
2022-11-03T03:09:36.727Z,13.72
2022-11-03T03:10:46.611Z,13.66
2022-11-03T03:11:53.686Z,13.21
2022-11-03T03:12:58.935Z,12.67
2022-11-03T03:14:00.733Z,12.18
2022-11-03T03:15:07.493Z,11.76
2022-11-03T03:16:23.025Z,11.37
2022-11-03T03:17:51.285Z,10.98
2022-11-03T03:19:01.983Z,10.88
2022-11-03T03:20:16.316Z,11.31
2022-11-03T03:21:26.011Z,11.94
2022-11-03T03:22:39.831Z,12.47
2022-11-03T03:23:50.667Z,12.97
2022-11-03T03:25:34.548Z,13.36
2022-11-03T03:26:46.929Z,13.63
2022-11-03T03:28:21.530Z,13.27
2022-11-03T03:29:31.651Z,12.54
2022-11-03T03:30:36.710Z,12.04
2022-11-03T03:31:45.329Z,11.63
2022-11-03T03:32:49.801Z,11.26
2022-11-03T03:34:04.249Z,10.97
2022-11-03T03:35:11.684Z,10.78
2022-11-03T03:36:17.761Z,11.10
2022-11-03T03:37:23.239Z,11.65
2022-11-03T03:38:40.185Z,12.22
2022-11-03T03:39:48.868Z,12.79
2022-11-03T03:40:55.871Z,13.21
2022-11-03T03:42:01.889Z,13.51
2022-11-03T03:43:08.052Z,13.46
2022-11-03T03:44:12.353Z,13.05
2022-11-03T03:45:15.501Z,12.55
2022-11-03T03:46:21.959Z,12.09
2022-11-03T03:47:32.805Z,11.66
2022-11-03T03:48:34.798Z,11.26
2022-11-03T03:49:36.533Z,10.96
2022-11-03T03:50:42.528Z,10.75
2022-11-03T03:51:46.812Z,10.91
2022-11-03T03:52:49.523Z,11.41
2022-11-03T03:53:53.210Z,11.96
2022-11-03T03:54:56.760Z,12.47
2022-11-03T03:56:05.959Z,12.90
2022-11-03T03:57:16.869Z,13.28
2022-11-03T03:58:18.644Z,13.43
2022-11-03T03:59:20.494Z,13.16
2022-11-03T04:00:22.515Z,12.71
2022-11-03T04:01:28.146Z,12.25
2022-11-03T04:02:31.668Z,11.78
2022-11-03T04:03:33.984Z,11.37
2022-11-03T04:04:35.888Z,11.03
2022-11-03T04:05:37.727Z,10.73
2022-11-03T04:06:39.579Z,10.62
2022-11-03T04:07:47.253Z,10.91
2022-11-03T04:08:49.245Z,11.46
2022-11-03T04:09:51.177Z,11.99
2022-11-03T04:11:11.537Z,12.46
2022-11-03T04:12:32.920Z,12.96
2022-11-03T04:14:00.048Z,13.34
2022-11-03T04:15:22.406Z,13.16
2022-11-03T04:16:48.808Z,12.58
2022-11-03T04:18:10.001Z,11.92
2022-11-03T04:19:31.042Z,11.38
2022-11-03T04:20:52.391Z,10.93
2022-11-03T04:22:12.549Z,10.54
2022-11-03T04:23:15.226Z,10.50
2022-11-03T04:24:17.009Z,10.92
2022-11-03T04:25:18.806Z,11.48
2022-11-03T04:26:26.160Z,12.00
2022-11-03T04:27:31.292Z,12.49
2022-11-03T04:28:35.627Z,12.88
2022-11-03T04:29:37.385Z,13.17
2022-11-03T04:30:39.411Z,13.17
2022-11-03T04:31:41.225Z,12.83
2022-11-03T04:32:45.022Z,12.37
2022-11-03T04:33:47.976Z,11.88
2022-11-03T04:34:50.190Z,11.45
2022-11-03T04:35:55.478Z,11.07
2022-11-03T04:36:57.358Z,10.73
2022-11-03T04:38:18.224Z,10.46
2022-11-03T04:39:20.753Z,10.48
2022-11-03T04:40:23.355Z,10.91
2022-11-03T04:41:31.793Z,11.47
2022-11-03T04:42:35.609Z,12.03
2022-11-03T04:43:38.917Z,12.48
2022-11-03T04:44:40.666Z,12.85
2022-11-03T04:45:47.063Z,13.11
2022-11-03T04:46:48.932Z,13.01
2022-11-03T04:47:52.872Z,12.62
2022-11-03T04:48:58.597Z,12.11
2022-11-03T04:50:03.104Z,11.64
2022-11-03T04:51:16.657Z,11.20
2022-11-03T04:52:23.250Z,10.80
2022-11-03T04:53:33.147Z,10.45
2022-11-03T04:54:35.197Z,10.25
2022-11-03T04:55:37.155Z,10.46
2022-11-03T04:56:40.439Z,10.91
2022-11-03T04:57:43.332Z,11.45
2022-11-03T04:58:48.086Z,11.92
2022-11-03T04:59:51.246Z,12.34
2022-11-03T05:00:57.379Z,12.68
2022-11-03T05:01:59.642Z,12.93
2022-11-03T05:03:01.939Z,12.93
2022-11-03T05:04:11.918Z,12.58
2022-11-03T05:05:22.164Z,12.04
2022-11-03T05:06:27.981Z,11.50
2022-11-03T05:07:35.347Z,11.04
2022-11-03T05:08:37.323Z,10.65
2022-11-03T05:09:42.740Z,10.35
2022-11-03T05:10:45.906Z,10.15
2022-11-03T05:11:47.994Z,10.36
2022-11-03T05:12:51.599Z,10.85
2022-11-03T05:13:53.879Z,11.42
2022-11-03T05:14:58.696Z,11.92
2022-11-03T05:16:05.389Z,12.37
2022-11-03T05:17:24.976Z,12.74
2022-11-03T05:18:38.964Z,12.82
2022-11-03T05:19:43.695Z,12.40
2022-11-03T05:20:52.213Z,11.90
2022-11-03T05:21:58.263Z,11.40
2022-11-03T05:23:01.132Z,10.97
2022-11-03T05:24:09.199Z,10.63
2022-11-03T05:25:40.954Z,10.29
2022-11-03T05:26:44.317Z,9.98
2022-11-03T05:27:46.071Z,10.21
2022-11-03T05:28:59.957Z,10.72
2022-11-03T05:30:05.129Z,11.38
2022-11-03T05:31:27.716Z,11.90
2022-11-03T05:32:34.255Z,12.43
2022-11-03T05:33:36.084Z,12.74
2022-11-03T05:34:42.415Z,12.76
2022-11-03T05:35:44.460Z,12.39
2022-11-03T05:36:46.279Z,11.94
2022-11-03T05:37:50.165Z,11.48
2022-11-03T05:38:56.760Z,11.06
2022-11-03T05:40:17.365Z,10.68
2022-11-03T05:41:26.150Z,10.30
2022-11-03T05:42:38.024Z,10.06
2022-11-03T05:43:39.830Z,10.26
2022-11-03T05:44:41.852Z,10.74
2022-11-03T05:45:44.208Z,11.29
2022-11-03T05:46:46.032Z,11.81
2022-11-03T05:47:49.383Z,12.22
2022-11-03T05:48:51.653Z,12.58
2022-11-03T05:50:11.751Z,12.80
2022-11-03T05:51:23.285Z,12.55
2022-11-03T05:52:28.145Z,12.04
2022-11-03T05:53:38.400Z,11.55
2022-11-03T05:54:40.349Z,11.08
2022-11-03T05:55:43.771Z,10.71
2022-11-03T05:56:45.478Z,10.39
2022-11-03T05:57:47.335Z,10.11
2022-11-03T05:58:51.951Z,10.01
2022-11-03T05:59:54.751Z,10.34
2022-11-03T06:00:57.871Z,10.88
2022-11-03T06:02:01.266Z,11.44
2022-11-03T06:03:04.640Z,11.93
2022-11-03T06:04:20.965Z,12.34
2022-11-03T06:05:24.927Z,12.72
2022-11-03T06:06:36.694Z,12.69
2022-11-03T06:07:38.525Z,12.27
2022-11-03T06:08:43.155Z,11.81
2022-11-03T06:09:47.757Z,11.33
2022-11-03T06:10:53.200Z,10.94
2022-11-03T06:11:58.771Z,10.59
2022-11-03T06:13:06.190Z,10.27
2022-11-03T06:14:24.428Z,10.01
2022-11-03T06:15:33.887Z,10.12
2022-11-03T06:16:40.478Z,10.65
2022-11-03T06:17:42.230Z,11.27
2022-11-03T06:18:44.029Z,11.79
2022-11-03T06:19:49.293Z,12.22
2022-11-03T06:21:07.351Z,12.61
2022-11-03T06:22:26.410Z,12.92
2022-11-03T06:23:28.401Z,12.74
2022-11-03T06:24:34.015Z,12.32
2022-11-03T06:25:37.867Z,11.84
2022-11-03T06:26:42.034Z,11.41
2022-11-03T06:27:43.929Z,11.01
2022-11-03T06:28:47.590Z,10.68
2022-11-03T06:29:58.868Z,10.40
2022-11-03T06:31:00.729Z,10.47
2022-11-03T06:32:02.458Z,10.90
2022-11-03T06:33:16.243Z,11.44
2022-11-03T06:34:33.609Z,12.03
2022-11-03T06:35:35.713Z,12.55
2022-11-03T06:36:37.474Z,12.90
2022-11-03T06:37:39.361Z,13.18
2022-11-03T06:38:41.168Z,13.31
2022-11-03T06:39:42.884Z,13.09
2022-11-03T06:40:46.037Z,12.66
2022-11-03T06:41:47.833Z,12.19
2022-11-03T06:42:49.561Z,11.77
2022-11-03T06:43:52.037Z,11.39
2022-11-03T06:44:53.765Z,11.06
2022-11-03T06:46:01.044Z,10.82
2022-11-03T06:47:17.712Z,10.95
2022-11-03T06:48:26.827Z,11.54
2022-11-03T06:49:33.087Z,12.15
2022-11-03T06:50:34.835Z,12.68
2022-11-03T06:51:36.738Z,13.07
2022-11-03T06:52:43.521Z,13.39
2022-11-03T06:53:46.239Z,13.62
2022-11-03T06:54:50.016Z,13.47
2022-11-03T06:55:51.972Z,13.07
2022-11-03T06:56:53.659Z,12.62
2022-11-03T06:58:02.670Z,12.21
2022-11-03T06:59:10.712Z,11.80
2022-11-03T07:00:32.831Z,11.47
2022-11-03T07:01:36.013Z,11.24
2022-11-03T07:02:49.797Z,11.51
2022-11-03T07:03:58.129Z,12.08
2022-11-03T07:05:00.256Z,12.62
2022-11-03T07:06:10.792Z,13.04
2022-11-03T07:07:12.533Z,13.44
2022-11-03T07:08:22.836Z,13.76
2022-11-03T07:09:28.418Z,13.99
2022-11-03T07:10:33.281Z,13.79
2022-11-03T07:11:44.740Z,13.36
2022-11-03T07:12:46.536Z,12.83
2022-11-03T07:13:53.152Z,12.41
2022-11-03T07:14:54.964Z,12.02
2022-11-03T07:15:56.832Z,11.71
2022-11-03T07:17:20.785Z,11.44
2022-11-03T07:18:37.955Z,11.60
2022-11-03T07:19:43.563Z,12.19
2022-11-03T07:20:45.846Z,12.72
2022-11-03T07:21:54.222Z,13.16
2022-11-03T07:23:02.091Z,13.56
2022-11-03T07:24:16.811Z,13.87
2022-11-03T07:25:20.929Z,14.10
2022-11-03T07:26:22.873Z,13.92
2022-11-03T07:27:31.252Z,13.49
2022-11-03T07:28:38.883Z,12.93
2022-11-03T07:29:42.024Z,12.42
2022-11-03T07:30:44.061Z,12.01
2022-11-03T07:31:45.984Z,11.65
2022-11-03T07:32:53.544Z,11.35
2022-11-03T07:33:59.392Z,11.23
2022-11-03T07:35:16.817Z,11.56
2022-11-03T07:36:22.671Z,12.23
2022-11-03T07:37:26.301Z,12.75
2022-11-03T07:38:30.171Z,13.22
2022-11-03T07:39:38.481Z,13.61
2022-11-03T07:40:41.074Z,13.94
2022-11-03T07:41:43.031Z,14.20
2022-11-03T07:42:45.403Z,14.16
2022-11-03T07:43:56.733Z,13.79
2022-11-03T07:44:58.585Z,13.28
2022-11-03T07:46:03.404Z,12.84
2022-11-03T07:47:16.371Z,12.43
2022-11-03T07:48:40.969Z,12.05
2022-11-03T07:49:42.927Z,11.70
2022-11-03T07:50:44.689Z,11.57
2022-11-03T07:51:46.418Z,11.84
2022-11-03T07:52:48.516Z,12.35
2022-11-03T07:53:55.096Z,12.91
2022-11-03T07:54:59.551Z,13.45
2022-11-03T07:56:02.416Z,13.93
2022-11-03T07:57:13.618Z,14.31
2022-11-03T07:58:23.083Z,14.66
2022-11-03T07:59:41.158Z,14.69
2022-11-03T08:00:42.897Z,14.26
2022-11-03T08:01:56.932Z,13.81
2022-11-03T08:03:01.881Z,13.32
2022-11-03T08:04:26.318Z,12.95
2022-11-03T08:05:28.038Z,12.55
2022-11-03T08:06:29.817Z,12.33
2022-11-03T08:07:31.732Z,12.35
2022-11-03T08:08:33.482Z,12.74
2022-11-03T08:09:35.238Z,13.29
2022-11-03T08:10:37.164Z,13.83
2022-11-03T08:11:38.901Z,14.32
2022-11-03T08:12:40.680Z,14.72
2022-11-03T08:13:42.390Z,15.06
2022-11-03T08:14:44.108Z,15.27
2022-11-03T08:15:45.846Z,15.14
2022-11-03T08:16:47.868Z,14.79
2022-11-03T08:17:55.034Z,14.39
2022-11-03T08:18:57.788Z,13.94
2022-11-03T08:19:59.643Z,13.59
2022-11-03T08:21:01.353Z,13.30
2022-11-03T08:22:03.422Z,13.06
2022-11-03T08:23:24.617Z,12.84
2022-11-03T08:24:27.082Z,12.86
2022-11-03T08:25:29.251Z,13.28
2022-11-03T08:26:30.986Z,13.84
2022-11-03T08:27:32.788Z,14.38
2022-11-03T08:28:34.693Z,14.86
2022-11-03T08:29:36.624Z,15.25
2022-11-03T08:30:38.374Z,15.57
2022-11-03T08:31:41.247Z,15.68
2022-11-03T08:32:43.285Z,15.46
2022-11-03T08:33:45.520Z,15.06
2022-11-03T08:34:47.303Z,14.65
2022-11-03T08:35:49.025Z,14.27
2022-11-03T08:36:50.739Z,13.92
2022-11-03T08:37:52.810Z,13.61
2022-11-03T08:38:54.592Z,13.35
2022-11-03T08:39:56.397Z,13.12
2022-11-03T08:41:01.938Z,12.95
2022-11-03T08:42:03.767Z,13.07
2022-11-03T08:43:06.632Z,13.53
2022-11-03T08:44:08.398Z,14.12
2022-11-03T08:45:11.492Z,14.66
2022-11-03T08:46:17.682Z,15.15
2022-11-03T08:47:20.100Z,15.59
2022-11-03T08:48:23.863Z,15.81
2022-11-03T08:49:25.581Z,15.65
2022-11-03T08:50:27.310Z,15.27
2022-11-03T08:51:29.688Z,14.86
2022-11-03T08:52:31.393Z,14.48
2022-11-03T08:53:34.096Z,14.15
2022-11-03T08:54:35.799Z,13.85
2022-11-03T08:55:37.464Z,13.60
2022-11-03T08:56:39.186Z,13.38
2022-11-03T08:57:40.907Z,13.20
2022-11-03T08:58:46.101Z,13.03
2022-11-03T08:59:47.808Z,12.87
2022-11-03T09:00:50.412Z,12.85
2022-11-03T09:01:52.421Z,13.22
2022-11-03T09:02:54.300Z,13.82
2022-11-03T09:03:56.090Z,14.44
2022-11-03T09:04:57.829Z,14.97
2022-11-03T09:05:59.504Z,15.41
2022-11-03T09:07:01.262Z,15.57
2022-11-03T09:10:46.803Z,14.44
2022-11-03T09:11:48.483Z,14.15
2022-11-03T09:12:50.171Z,13.89
2022-11-03T09:13:51.866Z,13.68
2022-11-03T09:14:53.569Z,13.51
2022-11-03T09:15:55.262Z,13.36
2022-11-03T09:16:57.089Z,13.23
2022-11-03T09:17:58.830Z,13.11
2022-11-03T09:19:00.537Z,13.00
2022-11-03T09:20:02.499Z,12.89
2022-11-03T09:21:04.326Z,12.80
2022-11-03T09:22:06.121Z,12.72
2022-11-03T09:23:07.812Z,12.65
2022-11-03T09:24:09.581Z,12.57
2022-11-03T09:25:11.384Z,12.51
2022-11-03T09:26:13.296Z,12.46
2022-11-03T09:27:15.002Z,12.41
2022-11-03T09:28:16.719Z,12.56
2022-11-03T09:29:18.452Z,13.07
2022-11-03T09:30:21.143Z,13.74
2022-11-03T09:31:25.903Z,14.43
2022-11-03T09:32:27.818Z,15.04
2022-11-03T09:33:29.852Z,15.44
2022-11-03T09:34:32.041Z,15.46
2022-11-03T09:35:33.739Z,15.22
2022-11-03T09:36:35.452Z,14.90
2022-11-03T09:37:37.219Z,14.60
2022-11-03T09:38:38.906Z,14.33
2022-11-03T09:39:40.593Z,14.10
2022-11-03T09:40:42.345Z,13.89
2022-11-03T09:41:57.204Z,13.71
2022-11-03T09:43:00.716Z,13.54
2022-11-03T09:44:02.899Z,13.41
2022-11-03T09:45:05.781Z,13.30
2022-11-03T09:46:07.633Z,13.20
2022-11-03T09:47:20.386Z,13.12
2022-11-03T09:48:22.369Z,13.04
2022-11-03T09:49:24.223Z,12.97
2022-11-03T09:50:25.962Z,12.91
2022-11-03T09:51:28.724Z,12.86
2022-11-03T09:52:31.329Z,12.81
2022-11-03T09:53:33.103Z,12.76
2022-11-03T09:54:35.034Z,12.73
2022-11-03T09:55:36.937Z,12.70
2022-11-03T09:56:38.675Z,12.68
2022-11-03T09:57:40.404Z,12.66
2022-11-03T09:58:42.607Z,12.63
2022-11-03T09:59:48.317Z,12.62
2022-11-03T10:00:50.151Z,12.60
2022-11-03T10:01:53.814Z,12.58
2022-11-03T10:02:56.266Z,12.57
2022-11-03T10:04:00.880Z,12.56
2022-11-03T10:05:08.210Z,12.56
2022-11-03T10:06:14.387Z,12.57
2022-11-03T10:07:17.184Z,12.58
2022-11-03T10:08:32.164Z,12.60
2022-11-03T10:09:34.598Z,12.63
2022-11-03T10:10:36.383Z,12.64
2022-11-03T10:11:38.574Z,12.66
2022-11-03T10:12:40.328Z,12.68
2022-11-03T10:13:47.928Z,12.69
2022-11-03T10:14:51.623Z,12.70
2022-11-03T10:15:53.620Z,12.72
2022-11-03T10:17:02.512Z,12.73
2022-11-03T10:18:04.239Z,12.72
2022-11-03T10:19:11.784Z,12.74
2022-11-03T10:20:16.895Z,12.75
2022-11-03T10:21:31.594Z,12.75
2022-11-03T10:22:36.995Z,12.75
2022-11-03T10:23:41.631Z,12.75
2022-11-03T10:24:43.488Z,12.76
2022-11-03T10:25:46.398Z,12.77
2022-11-03T10:26:50.444Z,12.80
2022-11-03T10:27:52.339Z,12.81
2022-11-03T10:29:06.044Z,12.83
2022-11-03T10:30:12.866Z,12.85
2022-11-03T10:31:21.605Z,12.89
2022-11-03T10:32:31.329Z,12.93
2022-11-03T10:33:41.708Z,12.97
2022-11-03T10:34:43.540Z,13.04
2022-11-03T10:35:45.300Z,13.09
2022-11-03T10:36:50.593Z,13.16
2022-11-03T10:37:52.538Z,13.23
2022-11-03T10:38:54.850Z,13.29
2022-11-03T10:39:58.624Z,13.37
2022-11-03T10:41:17.274Z,13.43
2022-11-03T10:42:24.697Z,13.53
2022-11-03T10:43:26.501Z,13.59
2022-11-03T10:44:29.896Z,13.66
2022-11-03T10:45:31.630Z,13.71
2022-11-03T10:46:49.554Z,13.77
2022-11-03T10:48:04.787Z,13.86
2022-11-03T10:49:12.479Z,13.94
2022-11-03T10:50:24.753Z,14.04
2022-11-03T10:51:26.429Z,14.13
2022-11-03T10:52:32.148Z,14.21
2022-11-03T10:53:34.061Z,14.31
2022-11-03T10:54:36.280Z,14.40
2022-11-03T10:56:41.957Z,14.55
2022-11-03T10:57:43.924Z,14.64
2022-11-03T10:58:45.854Z,14.72
2022-11-03T10:59:51.323Z,14.81
2022-11-03T11:00:53.134Z,14.89
2022-11-03T11:01:55.322Z,14.95
2022-11-03T11:03:01.709Z,15.02
2022-11-03T11:04:04.628Z,15.09
2022-11-03T11:05:19.425Z,15.16
2022-11-03T11:06:31.415Z,15.24
2022-11-03T11:07:38.416Z,15.31
2022-11-03T11:08:40.190Z,15.40
2022-11-03T11:09:41.962Z,15.48
2022-11-03T11:10:45.321Z,15.57
2022-11-03T11:12:07.767Z,15.66
2022-11-03T11:13:16.833Z,15.74
2022-11-03T11:14:28.200Z,15.80
2022-11-03T11:15:40.670Z,15.82
2022-11-03T11:16:54.542Z,15.84
2022-11-03T11:17:56.254Z,15.89
2022-11-03T11:18:57.863Z,15.93
2022-11-03T11:20:21.442Z,15.98
2022-11-03T11:21:25.048Z,16.05
2022-11-03T11:22:26.732Z,16.11
2022-11-03T11:23:31.001Z,16.18
2022-11-03T11:24:44.657Z,16.27
2022-11-03T11:26:11.436Z,16.37
2022-11-03T11:27:32.339Z,16.48
2022-11-03T11:28:34.559Z,16.55
2022-11-03T11:29:36.284Z,16.60
2022-11-03T11:30:37.882Z,16.62
2022-11-03T11:31:43.822Z,16.63
2022-11-03T11:32:45.476Z,16.66
2022-11-03T11:33:47.296Z,16.69
2022-11-03T11:34:49.073Z,16.74
2022-11-03T11:35:52.996Z,16.78
2022-11-03T11:36:58.201Z,16.83
2022-11-03T11:38:38.496Z,16.88
2022-11-03T11:39:44.197Z,16.99
2022-11-03T11:40:52.504Z,17.06
2022-11-03T11:42:17.462Z,17.14
2022-11-03T11:43:19.280Z,17.24
2022-11-03T11:44:39.284Z,17.30
2022-11-03T11:46:18.628Z,17.37
2022-11-03T11:47:47.052Z,17.41
2022-11-03T11:48:57.696Z,17.43
2022-11-03T11:50:15.986Z,17.48
2022-11-03T11:51:17.711Z,17.52
2022-11-03T11:52:19.483Z,17.56
2022-11-03T11:53:26.247Z,17.61
2022-11-03T11:54:33.385Z,17.65
2022-11-03T11:55:42.623Z,17.69
2022-11-03T11:56:48.460Z,17.73
2022-11-03T11:57:50.689Z,17.78
2022-11-03T11:58:55.407Z,17.84
2022-11-03T11:59:57.205Z,17.90
2022-11-03T12:01:20.621Z,17.96
2022-11-03T12:02:24.808Z,18.01
2022-11-03T12:03:32.674Z,18.05
2022-11-03T12:04:34.709Z,18.08
2022-11-03T12:05:36.488Z,18.09
2022-11-03T12:06:40.969Z,18.09
2022-11-03T12:07:42.776Z,18.10
2022-11-03T12:08:44.638Z,18.13
2022-11-03T12:09:46.520Z,18.15
2022-11-03T12:11:00.515Z,18.16
2022-11-03T12:12:08.341Z,18.16
2022-11-03T12:13:36.456Z,18.20
2022-11-03T12:14:38.887Z,18.30
2022-11-03T12:15:59.384Z,18.39
2022-11-03T12:17:27.382Z,18.50
2022-11-03T12:18:44.709Z,18.62
2022-11-03T12:19:52.585Z,18.74
2022-11-03T12:20:54.273Z,18.81
2022-11-03T12:21:55.978Z,18.87
2022-11-03T12:22:57.755Z,18.92
2022-11-03T12:23:59.638Z,18.95
2022-11-03T12:25:04.953Z,18.98
2022-11-03T12:26:29.602Z,19.01
2022-11-03T12:27:31.216Z,19.05
2022-11-03T12:28:37.607Z,19.08
2022-11-03T12:29:39.578Z,19.13
2022-11-03T12:30:41.256Z,19.15
2022-11-03T12:31:42.959Z,19.15
2022-11-03T12:32:46.295Z,19.12
2022-11-03T12:33:48.099Z,19.10
2022-11-03T12:34:49.953Z,19.07
2022-11-03T12:35:51.641Z,19.03
2022-11-03T12:36:56.310Z,18.99
2022-11-03T12:37:58.176Z,18.94
2022-11-03T12:39:00.188Z,18.89
2022-11-03T12:40:01.960Z,18.85
2022-11-03T12:41:22.232Z,18.82
2022-11-03T12:42:25.491Z,18.78
2022-11-03T12:43:27.365Z,18.77
2022-11-03T12:44:29.235Z,18.75
2022-11-03T12:45:31.018Z,18.73
2022-11-03T12:46:32.743Z,18.70
2022-11-03T12:47:34.465Z,18.67
2022-11-03T12:48:36.170Z,18.63
2022-11-03T12:49:38.104Z,18.58
2022-11-03T12:50:40.676Z,18.54
2022-11-03T12:51:42.372Z,18.49
2022-11-03T12:52:44.053Z,18.44
2022-11-03T12:53:46.490Z,18.39
2022-11-03T12:54:48.382Z,18.37
2022-11-03T12:55:50.090Z,18.35
2022-11-03T12:56:53.211Z,18.34
2022-11-03T12:57:54.924Z,18.34
2022-11-03T12:58:56.608Z,18.34
2022-11-03T12:59:58.802Z,18.33
2022-11-03T13:01:02.252Z,18.33
2022-11-03T13:02:04.624Z,18.33
2022-11-03T13:03:07.036Z,18.32
2022-11-03T13:04:09.129Z,18.32
2022-11-03T13:05:15.235Z,18.31
2022-11-03T13:06:17.137Z,18.31
2022-11-03T13:07:25.644Z,18.31
2022-11-03T13:08:29.615Z,18.32
2022-11-03T13:09:31.325Z,18.33
2022-11-03T13:10:33.657Z,18.34
2022-11-03T13:11:53.764Z,18.35
2022-11-03T13:12:55.534Z,18.35
2022-11-03T13:13:57.477Z,18.31
2022-11-03T13:15:01.720Z,18.24
2022-11-03T13:16:03.739Z,18.15
2022-11-03T13:17:05.438Z,18.08
2022-11-03T13:18:13.382Z,18.01
2022-11-03T13:19:15.968Z,17.93
2022-11-03T13:20:18.414Z,17.87
2022-11-03T13:21:20.728Z,17.81
2022-11-03T13:22:22.413Z,17.74
2022-11-03T13:23:24.075Z,17.69
2022-11-03T13:24:25.769Z,17.64
2022-11-03T13:25:28.816Z,17.56
2022-11-03T13:26:30.748Z,17.52
2022-11-03T13:27:32.459Z,17.47
2022-11-03T13:28:34.132Z,17.42
2022-11-03T13:29:36.293Z,17.39
2022-11-03T13:30:37.980Z,17.37
2022-11-03T13:31:39.711Z,17.36
2022-11-03T13:32:41.749Z,17.36
2022-11-03T13:33:43.579Z,17.35
2022-11-03T13:34:45.269Z,17.36
2022-11-03T13:35:47.192Z,17.37
2022-11-03T13:36:49.056Z,17.38
2022-11-03T13:37:50.897Z,17.40
2022-11-03T13:38:52.697Z,17.42
2022-11-03T13:39:54.464Z,17.44
2022-11-03T13:40:57.836Z,17.46
2022-11-03T13:42:01.610Z,17.49
2022-11-03T13:43:03.318Z,17.53
2022-11-03T13:44:05.096Z,17.56
2022-11-03T13:45:08.124Z,17.60
2022-11-03T13:46:09.845Z,17.63
2022-11-03T13:47:11.997Z,17.65
2022-11-03T13:50:07.737Z,17.66
2022-11-03T13:50:59.963Z,17.65
2022-11-03T13:52:01.758Z,17.66
2022-11-03T13:55:46.824Z,17.70
2022-11-03T13:59:34.921Z,17.64
2022-11-03T14:00:36.601Z,17.63
2022-11-03T14:01:38.884Z,17.62
2022-11-03T14:05:24.469Z,17.49
2022-11-03T14:06:26.184Z,17.43
2022-11-03T14:07:28.677Z,17.37
2022-11-03T14:08:30.376Z,17.32
2022-11-03T14:09:32.357Z,17.25
2022-11-03T14:10:34.064Z,17.17
2022-11-03T14:11:54.653Z,17.08
2022-11-03T14:12:56.789Z,16.95
2022-11-03T14:13:58.499Z,16.84
2022-11-03T14:15:09.016Z,16.72
2022-11-03T14:16:10.890Z,16.58
2022-11-03T14:17:12.679Z,16.47
2022-11-03T14:18:14.765Z,16.34
2022-11-03T14:19:16.455Z,16.20
2022-11-03T14:20:18.349Z,16.08
2022-11-03T14:21:20.111Z,15.95
2022-11-03T14:22:23.761Z,15.83
2022-11-03T14:23:25.447Z,15.69
2022-11-03T14:24:27.262Z,15.57
2022-11-03T14:25:29.038Z,15.44
2022-11-03T14:26:43.047Z,15.33
2022-11-03T14:27:45.105Z,15.19
2022-11-03T14:28:46.862Z,15.07
2022-11-03T14:29:51.802Z,14.96
2022-11-03T14:30:55.713Z,14.85
2022-11-03T14:31:57.473Z,14.75
2022-11-03T14:32:59.814Z,14.64
2022-11-03T14:34:01.941Z,14.53
2022-11-03T14:35:03.903Z,14.41
2022-11-03T14:36:05.841Z,14.31
2022-11-03T14:37:11.137Z,14.20
2022-11-03T14:38:12.894Z,14.09
2022-11-03T14:39:14.585Z,13.99
2022-11-03T14:40:36.268Z,13.90
2022-11-03T14:41:56.552Z,13.77
2022-11-03T14:42:58.242Z,13.66
2022-11-03T14:44:00.078Z,13.57
2022-11-03T14:45:01.746Z,13.49
2022-11-03T14:46:03.573Z,13.40
2022-11-03T14:47:09.435Z,13.31
2022-11-03T14:48:11.239Z,13.22